createdAt,value
2023-03-21T00:00:28.260Z,12.42
2023-03-21T00:03:15.533Z,12.45
2023-03-21T00:06:11.444Z,12.34
2023-03-21T00:08:57.521Z,12.44
2023-03-21T00:11:43.546Z,12.40
2023-03-21T00:14:31.009Z,12.41
2023-03-21T00:17:17.283Z,12.39
2023-03-21T00:20:06.919Z,12.40
2023-03-21T00:22:52.991Z,12.29
2023-03-21T00:25:39.635Z,12.44
2023-03-21T00:28:26.508Z,12.43
2023-03-21T00:31:12.246Z,12.43
2023-03-21T00:33:58.350Z,12.43
2023-03-21T00:36:44.491Z,12.48
2023-03-21T00:39:30.225Z,12.42
2023-03-21T00:42:16.626Z,12.51
2023-03-21T00:45:03.596Z,12.49
2023-03-21T00:47:50.691Z,12.47
2023-03-21T00:50:38.864Z,12.44
2023-03-21T00:53:25.400Z,12.36
2023-03-21T00:56:11.426Z,12.47
2023-03-21T00:58:57.317Z,12.43
2023-03-21T01:01:43.094Z,12.42
2023-03-21T01:04:29.145Z,12.42
2023-03-21T01:07:15.254Z,12.43
2023-03-21T01:10:01.466Z,12.40
2023-03-21T01:12:47.248Z,12.38
2023-03-21T01:15:36.237Z,12.40
2023-03-21T01:18:26.998Z,12.37
2023-03-21T01:21:14.329Z,12.31
2023-03-21T01:24:01.767Z,12.34
2023-03-21T01:26:48.020Z,12.30
2023-03-21T01:29:34.589Z,12.26
2023-03-21T01:32:20.830Z,12.33
2023-03-21T01:35:07.381Z,12.22
2023-03-21T01:37:56.288Z,12.27
2023-03-21T01:40:45.245Z,12.33
2023-03-21T01:43:44.536Z,12.32
2023-03-21T01:46:45.331Z,12.35
2023-03-21T01:49:57.070Z,12.31
2023-03-21T01:52:53.879Z,12.31
2023-03-21T01:55:47.872Z,12.24
2023-03-21T01:58:45.945Z,12.33
2023-03-21T02:02:01.435Z,12.18
2023-03-21T02:04:51.146Z,12.28
2023-03-21T02:07:41.947Z,12.31
2023-03-21T02:10:28.460Z,12.29
2023-03-21T02:13:16.446Z,11.98
2023-03-21T02:16:13.608Z,12.09
2023-03-21T02:19:22.980Z,12.14
2023-03-21T02:22:49.672Z,12.11
2023-03-21T02:25:48.285Z,12.04
2023-03-21T02:28:41.010Z,12.11
2023-03-21T02:31:52.312Z,12.00
2023-03-21T02:35:06.793Z,12.09
2023-03-21T02:38:11.291Z,12.11
2023-03-21T02:41:03.458Z,12.11
2023-03-21T02:43:58.329Z,12.05
2023-03-21T02:47:05.868Z,11.91
2023-03-21T02:49:57.336Z,12.08
2023-03-21T02:52:44.634Z,12.01
2023-03-21T02:55:32.421Z,12.04
2023-03-21T02:58:23.648Z,11.92
2023-03-21T03:01:14.375Z,12.04
2023-03-21T03:04:04.792Z,11.95
2023-03-21T03:07:06.159Z,11.95
2023-03-21T03:10:03.481Z,11.95
2023-03-21T03:13:17.108Z,11.95
2023-03-21T03:16:38.055Z,11.90
2023-03-21T03:19:32.776Z,11.95
2023-03-21T03:22:36.712Z,11.91
2023-03-21T03:25:43.074Z,11.93
2023-03-21T03:28:37.628Z,11.92
2023-03-21T03:31:35.692Z,11.95
2023-03-21T03:34:26.384Z,11.94
2023-03-21T03:37:14.931Z,11.98
2023-03-21T03:40:09.345Z,11.93
2023-03-21T03:43:01.691Z,11.90
2023-03-21T03:46:02.361Z,11.92
2023-03-21T03:49:05.505Z,11.89
2023-03-21T03:52:00.290Z,11.78
2023-03-21T03:54:58.545Z,11.89
2023-03-21T03:57:45.479Z,11.88
2023-03-21T04:00:34.895Z,11.87
2023-03-21T04:03:20.990Z,11.87
2023-03-21T04:06:08.677Z,11.85
2023-03-21T04:08:56.872Z,11.87
2023-03-21T04:11:43.093Z,11.86
2023-03-21T04:14:38.882Z,11.80
2023-03-21T04:17:30.569Z,11.86
2023-03-21T04:20:26.791Z,11.89
2023-03-21T04:23:20.705Z,11.88
2023-03-21T04:26:08.111Z,11.87
2023-03-21T04:29:03.004Z,11.88
2023-03-21T04:32:26.184Z,11.88
2023-03-21T04:35:25.791Z,11.78
2023-03-21T04:38:11.907Z,11.92
2023-03-21T04:40:58.399Z,11.93
2023-03-21T04:43:52.329Z,11.85
2023-03-21T04:46:39.739Z,11.88
2023-03-21T04:49:26.539Z,11.97
2023-03-21T04:52:12.603Z,11.95
2023-03-21T04:54:58.472Z,11.90
2023-03-21T04:57:44.313Z,11.97
2023-03-21T05:00:30.649Z,11.94
2023-03-21T05:03:19.854Z,11.91
2023-03-21T05:06:08.664Z,11.93
2023-03-21T05:08:56.756Z,11.92
2023-03-21T05:11:43.018Z,11.92
2023-03-21T05:14:31.549Z,11.93
2023-03-21T05:17:23.342Z,11.92
2023-03-21T05:20:11.499Z,11.80
2023-03-21T05:22:57.649Z,11.93
2023-03-21T05:25:43.909Z,11.96
2023-03-21T05:28:40.114Z,11.94
2023-03-21T05:31:27.087Z,11.94
2023-03-21T05:34:24.296Z,11.99
2023-03-21T05:37:10.386Z,11.99
2023-03-21T05:40:06.388Z,12.01
2023-03-21T05:42:53.627Z,11.97
2023-03-21T05:45:43.367Z,12.04
2023-03-21T05:48:30.244Z,12.04
2023-03-21T05:51:28.661Z,12.02
2023-03-21T05:54:19.100Z,12.05
2023-03-21T05:57:07.557Z,12.09
2023-03-21T06:00:18.064Z,12.15
2023-03-21T06:03:18.176Z,12.16
2023-03-21T06:06:19.859Z,12.17
2023-03-21T06:09:13.816Z,12.20
2023-03-21T06:12:05.373Z,12.29
2023-03-21T06:14:59.594Z,12.27
2023-03-21T06:17:52.704Z,12.35
2023-03-21T06:20:38.776Z,12.30
2023-03-21T06:23:29.308Z,12.45
2023-03-21T06:26:15.396Z,12.53
2023-03-21T06:29:01.364Z,12.61
2023-03-21T06:31:47.254Z,12.63
2023-03-21T06:34:39.356Z,12.72
2023-03-21T06:37:26.591Z,12.78
2023-03-21T06:40:13.859Z,12.73
2023-03-21T06:43:00.096Z,12.94
2023-03-21T06:45:46.180Z,12.97
2023-03-21T06:48:32.535Z,12.92
2023-03-21T06:51:19.186Z,12.88
2023-03-21T06:54:24.257Z,13.15
2023-03-21T06:57:15.519Z,13.18
2023-03-21T07:00:01.605Z,13.13
2023-03-21T07:02:50.671Z,13.26
2023-03-21T07:05:40.089Z,13.36
2023-03-21T07:08:26.383Z,13.32
2023-03-21T07:11:12.188Z,13.44
2023-03-21T07:13:58.987Z,13.42
2023-03-21T07:16:45.038Z,13.49
2023-03-21T07:19:32.282Z,13.56
2023-03-21T07:22:18.690Z,13.61
2023-03-21T07:25:05.789Z,13.58
2023-03-21T07:27:57.695Z,13.64
2023-03-21T07:30:44.466Z,13.75
2023-03-21T07:33:31.867Z,13.77
2023-03-21T07:36:19.801Z,13.83
2023-03-21T07:39:06.451Z,13.92
2023-03-21T07:41:52.933Z,13.99
2023-03-21T07:44:50.853Z,14.04
2023-03-21T07:47:37.104Z,14.07
2023-03-21T07:50:23.400Z,14.10
2023-03-21T07:53:09.568Z,14.19
2023-03-21T07:55:56.710Z,14.17
2023-03-21T07:58:42.920Z,14.22
2023-03-21T08:01:28.879Z,14.45
2023-03-21T08:04:14.744Z,14.44
2023-03-21T08:07:01.578Z,14.53
2023-03-21T08:09:47.446Z,14.60
2023-03-21T08:12:33.484Z,14.58
2023-03-21T08:15:19.397Z,14.53
2023-03-21T08:18:05.585Z,14.70
2023-03-21T08:20:56.471Z,14.75
2023-03-21T08:23:42.433Z,14.88
2023-03-21T08:26:28.293Z,14.90
2023-03-21T08:29:14.112Z,14.89
2023-03-21T08:32:00.114Z,15.01
2023-03-21T08:34:46.546Z,14.89
2023-03-21T08:37:33.644Z,15.06
2023-03-21T08:40:20.554Z,15.07
2023-03-21T08:43:06.839Z,15.05
2023-03-21T08:45:53.162Z,15.16
2023-03-21T08:48:39.613Z,15.14
2023-03-21T08:51:25.349Z,15.21
2023-03-21T08:54:21.864Z,15.12
2023-03-21T08:57:09.030Z,15.25
2023-03-21T08:59:54.931Z,15.41
2023-03-21T09:02:45.151Z,15.37
2023-03-21T09:05:31.308Z,15.43
2023-03-21T09:08:17.338Z,15.54
2023-03-21T09:11:03.186Z,15.52
2023-03-21T09:13:48.941Z,15.58
2023-03-21T09:16:35.075Z,15.65
2023-03-21T09:19:21.747Z,15.76
2023-03-21T09:22:11.176Z,15.83
2023-03-21T09:24:57.461Z,15.91
2023-03-21T09:27:45.937Z,15.86
2023-03-21T09:30:33.341Z,15.88
2023-03-21T09:33:21.269Z,15.99
2023-03-21T09:36:12.985Z,16.04
2023-03-21T09:38:59.585Z,16.13
2023-03-21T09:41:51.733Z,16.28
2023-03-21T09:44:38.004Z,16.26
2023-03-21T09:47:29.270Z,16.31
2023-03-21T09:50:20.577Z,16.30
2023-03-21T09:53:31.003Z,16.26
2023-03-21T09:56:17.414Z,16.50
2023-03-21T09:59:07.240Z,16.55
2023-03-21T10:01:55.473Z,16.54
2023-03-21T10:04:41.409Z,16.65
2023-03-21T10:07:30.896Z,16.67
2023-03-21T10:10:20.852Z,16.74
2023-03-21T10:13:14.119Z,16.70
2023-03-21T10:16:02.682Z,16.76
2023-03-21T10:18:49.787Z,16.91
2023-03-21T10:21:59.271Z,16.85
2023-03-21T10:24:44.321Z,16.94
2023-03-21T10:27:30.812Z,16.96
2023-03-21T10:30:25.114Z,16.98
2023-03-21T10:33:16.852Z,16.93
2023-03-21T10:36:06.730Z,17.09
2023-03-21T10:38:56.533Z,17.20
2023-03-21T10:41:42.466Z,17.19
2023-03-21T10:44:34.116Z,17.29
2023-03-21T10:47:25.260Z,17.26
2023-03-21T10:50:17.908Z,17.37
2023-03-21T10:53:03.830Z,17.26
2023-03-21T10:55:52.764Z,17.38
2023-03-21T10:58:43.504Z,17.41
2023-03-21T11:01:38.965Z,17.43
2023-03-21T11:04:27.110Z,17.45
2023-03-21T11:07:14.778Z,17.24
2023-03-21T11:10:01.942Z,17.33
2023-03-21T11:12:48.741Z,17.44
2023-03-21T11:15:37.926Z,17.40
2023-03-21T11:18:26.212Z,17.33
2023-03-21T11:21:13.626Z,17.33
2023-03-21T11:23:59.632Z,17.33
2023-03-21T11:26:48.908Z,17.29
2023-03-21T11:29:52.164Z,17.25
2023-03-21T11:32:38.526Z,17.21
2023-03-21T11:35:28.789Z,17.23
2023-03-21T11:38:27.443Z,17.08
2023-03-21T11:41:23.653Z,17.13
2023-03-21T11:44:29.054Z,17.21
2023-03-21T11:47:14.940Z,17.22
2023-03-21T11:50:05.354Z,17.27
2023-03-21T11:52:59.775Z,17.15
2023-03-21T11:55:53.564Z,17.19
2023-03-21T11:59:10.832Z,17.08
2023-03-21T12:02:07.451Z,17.13
2023-03-21T12:05:05.406Z,17.00
2023-03-21T12:08:29.795Z,17.10
2023-03-21T12:11:20.346Z,17.09
2023-03-21T12:14:31.078Z,17.01
2023-03-21T12:17:26.223Z,17.01
2023-03-21T12:20:25.218Z,16.86
2023-03-21T12:23:29.525Z,16.97
2023-03-21T12:26:27.178Z,16.96
2023-03-21T12:29:19.124Z,17.02
2023-03-21T12:32:26.477Z,16.92
2023-03-21T12:35:54.934Z,16.91
2023-03-21T12:38:47.233Z,17.00
2023-03-21T12:41:35.539Z,17.06
2023-03-21T12:44:22.839Z,17.07
2023-03-21T12:47:16.855Z,17.14
2023-03-21T12:50:31.091Z,17.11
2023-03-21T12:53:30.497Z,17.15
2023-03-21T12:56:24.027Z,17.17
2023-03-21T12:59:28.853Z,17.17
2023-03-21T13:02:34.652Z,17.24
2023-03-21T13:05:29.760Z,17.34
2023-03-21T13:08:37.401Z,17.32
2023-03-21T13:11:25.924Z,17.33
2023-03-21T13:14:19.986Z,17.31
2023-03-21T13:17:25.051Z,17.18
2023-03-21T13:20:16.475Z,17.40
2023-03-21T13:23:03.702Z,17.42
2023-03-21T13:25:52.142Z,17.41
2023-03-21T13:28:40.298Z,17.39
2023-03-21T13:31:29.283Z,17.50
2023-03-21T13:34:17.091Z,17.37
2023-03-21T13:37:03.224Z,17.47
2023-03-21T13:39:49.696Z,17.55
2023-03-21T13:42:35.689Z,17.47
2023-03-21T13:45:46.180Z,17.61
2023-03-21T13:48:49.455Z,17.44
2023-03-21T13:51:51.940Z,17.48
2023-03-21T13:54:51.492Z,17.52
2023-03-21T13:57:38.827Z,17.52
2023-03-21T14:00:27.775Z,17.49
2023-03-21T14:03:17.608Z,17.51
2023-03-21T14:06:03.892Z,17.39
2023-03-21T14:08:50.044Z,17.44
2023-03-21T14:11:38.323Z,17.50
2023-03-21T14:14:27.321Z,17.42
2023-03-21T14:17:52.433Z,17.33
2023-03-21T14:20:39.969Z,17.41
2023-03-21T14:23:26.221Z,17.45
2023-03-21T14:26:14.259Z,17.41
2023-03-21T14:29:12.385Z,17.45
2023-03-21T14:32:06.122Z,17.39
2023-03-21T14:34:54.373Z,17.39
2023-03-21T14:37:44.968Z,17.43
2023-03-21T14:40:31.604Z,17.37
2023-03-21T14:43:30.135Z,17.36
2023-03-21T14:46:16.739Z,17.26
2023-03-21T14:49:27.581Z,17.22
2023-03-21T14:52:22.678Z,17.20
2023-03-21T14:55:16.497Z,17.04
2023-03-21T14:58:02.425Z,17.19
2023-03-21T15:00:50.490Z,17.22
2023-03-21T15:03:37.772Z,17.12
2023-03-21T15:06:32.371Z,17.07
2023-03-21T15:09:24.133Z,17.07
2023-03-21T15:12:14.050Z,17.04
2023-03-21T15:15:01.447Z,17.06
2023-03-21T15:17:47.713Z,17.03
2023-03-21T15:20:36.436Z,16.98
2023-03-21T15:23:37.499Z,17.04
2023-03-21T15:26:25.887Z,17.04
2023-03-21T15:29:13.213Z,17.00
2023-03-21T15:31:59.729Z,16.91
2023-03-21T15:34:46.596Z,16.84
2023-03-21T15:37:37.248Z,16.86
2023-03-21T15:40:29.478Z,16.88
2023-03-21T15:43:19.940Z,16.83
2023-03-21T15:46:17.776Z,16.76
2023-03-21T15:49:13.397Z,16.77
2023-03-21T15:52:13.077Z,16.70
2023-03-21T15:54:59.558Z,16.68
2023-03-21T15:57:47.567Z,16.68
2023-03-21T16:00:41.871Z,16.55
2023-03-21T16:03:31.251Z,16.60
2023-03-21T16:06:22.177Z,16.61
2023-03-21T16:09:24.910Z,16.51
2023-03-21T16:12:13.374Z,16.54
2023-03-21T16:14:59.292Z,16.51
2023-03-21T16:17:56.020Z,16.48
2023-03-21T16:20:47.183Z,16.48
2023-03-21T16:23:32.955Z,16.41
2023-03-21T16:26:21.480Z,16.40
2023-03-21T16:29:08.491Z,16.46
2023-03-21T16:31:54.310Z,16.47
2023-03-21T16:34:41.147Z,16.46
2023-03-21T16:37:27.264Z,16.40
2023-03-21T16:40:18.215Z,16.28
2023-03-21T16:43:04.358Z,16.27
2023-03-21T16:45:50.670Z,16.32
2023-03-21T16:48:36.739Z,16.30
2023-03-21T16:51:27.160Z,16.26
2023-03-21T16:54:12.922Z,16.38
2023-03-21T16:56:59.570Z,16.31
2023-03-21T16:59:46.643Z,16.27
2023-03-21T17:02:32.302Z,16.25
2023-03-21T17:05:18.301Z,16.22
2023-03-21T17:08:05.540Z,16.28
2023-03-21T17:10:51.642Z,16.15
2023-03-21T17:13:37.785Z,16.22
2023-03-21T17:16:26.868Z,16.20
2023-03-21T17:19:19.079Z,16.07
2023-03-21T17:22:05.388Z,16.13
2023-03-21T17:24:51.583Z,16.18
2023-03-21T17:27:37.934Z,16.12
2023-03-21T17:30:30.010Z,16.10
2023-03-21T17:33:15.973Z,16.07
2023-03-21T17:36:01.803Z,16.10
2023-03-21T17:38:47.914Z,16.07
2023-03-21T17:41:34.092Z,16.00
2023-03-21T17:44:20.632Z,16.02
2023-03-21T17:47:07.437Z,15.94
2023-03-21T17:49:53.427Z,16.02
2023-03-21T17:52:39.507Z,15.96
2023-03-21T17:55:26.236Z,16.04
2023-03-21T17:58:13.017Z,15.93
2023-03-21T18:00:59.306Z,16.00
2023-03-21T18:03:45.429Z,15.99
2023-03-21T18:06:34.441Z,15.95
2023-03-21T18:09:21.735Z,15.94
2023-03-21T18:12:07.744Z,15.99
2023-03-21T18:14:53.955Z,15.88
2023-03-21T18:17:39.874Z,15.91
2023-03-21T18:20:50.243Z,15.62
2023-03-21T18:23:36.031Z,15.75
2023-03-21T18:26:24.039Z,15.82
2023-03-21T18:32:17.294Z,15.80
2023-03-21T18:35:05.081Z,15.76
2023-03-21T18:37:51.052Z,15.76
2023-03-21T18:40:37.322Z,15.78
2023-03-21T18:46:30.573Z,15.75
2023-03-21T18:52:24.018Z,15.75
2023-03-21T18:55:10.493Z,15.75
2023-03-21T18:57:56.329Z,15.73
2023-03-21T19:00:43.753Z,15.61
2023-03-21T19:03:36.947Z,15.64
2023-03-21T19:06:27.637Z,15.63
2023-03-21T19:09:14.614Z,15.57
2023-03-21T19:12:01.987Z,15.57
2023-03-21T19:14:51.912Z,15.55
2023-03-21T19:18:23.204Z,15.49
2023-03-21T19:20:46.079Z,15.52
2023-03-21T19:23:53.293Z,15.52
2023-03-21T19:26:38.441Z,15.52
2023-03-21T19:29:25.144Z,15.44
2023-03-21T19:32:12.139Z,15.16
2023-03-21T19:34:58.109Z,15.31
2023-03-21T19:37:44.114Z,15.25
2023-03-21T19:40:30.496Z,15.33
2023-03-21T19:43:32.147Z,15.25
2023-03-21T19:46:20.876Z,15.23
2023-03-21T19:49:07.251Z,15.27
2023-03-21T19:51:53.539Z,15.24
2023-03-21T19:54:39.934Z,15.24
2023-03-21T19:57:25.951Z,15.18
2023-03-21T20:00:12.415Z,15.20
2023-03-21T20:02:58.430Z,15.10
2023-03-21T20:05:44.436Z,15.06
2023-03-21T20:08:43.310Z,15.14
2023-03-21T20:11:36.823Z,15.10
2023-03-21T20:14:24.910Z,15.09
2023-03-21T20:17:11.449Z,15.09
2023-03-21T20:19:58.226Z,15.06
2023-03-21T20:23:07.914Z,14.82
2023-03-21T20:25:54.249Z,15.03
2023-03-21T20:28:54.871Z,15.01
2023-03-21T20:31:45.737Z,15.02
2023-03-21T20:34:31.653Z,15.03
2023-03-21T20:37:17.888Z,15.01
2023-03-21T20:40:08.405Z,15.01
2023-03-21T20:42:56.555Z,14.95
2023-03-21T20:45:42.360Z,14.93
2023-03-21T20:48:30.042Z,14.96
2023-03-21T20:52:24.274Z,14.94
2023-03-21T20:54:23.762Z,14.94
2023-03-21T20:57:10.236Z,14.82
2023-03-21T20:59:57.647Z,14.91
2023-03-21T21:02:45.206Z,14.92
2023-03-21T21:05:34.855Z,14.86
2023-03-21T21:08:23.828Z,14.88
2023-03-21T21:12:02.541Z,14.85
2023-03-21T21:14:16.851Z,14.83
2023-03-21T21:17:22.430Z,14.85
2023-03-21T21:20:16.539Z,14.83
2023-03-21T21:23:02.512Z,14.69
2023-03-21T21:25:55.223Z,14.74
2023-03-21T21:28:43.376Z,14.80
2023-03-21T21:31:29.185Z,14.76
2023-03-21T21:34:16.017Z,14.77
2023-03-21T21:37:02.109Z,14.70
2023-03-21T21:39:48.244Z,14.67
2023-03-21T21:42:34.264Z,14.68
2023-03-21T21:45:20.233Z,14.71
2023-03-21T21:48:07.163Z,14.64
2023-03-21T21:50:54.164Z,14.68
2023-03-21T21:53:40.970Z,14.62
2023-03-21T21:56:32.233Z,14.62
2023-03-21T21:59:18.284Z,14.55
2023-03-21T22:02:05.893Z,14.60
2023-03-21T22:04:56.934Z,14.55
2023-03-21T22:07:43.417Z,14.55
2023-03-21T22:10:32.598Z,14.56
2023-03-21T22:13:18.739Z,14.54
2023-03-21T22:16:04.888Z,14.43
2023-03-21T22:18:50.803Z,14.50
2023-03-21T22:21:36.536Z,14.42
2023-03-21T22:24:26.028Z,14.45
2023-03-21T22:27:11.852Z,14.41
2023-03-21T22:29:57.965Z,14.41
2023-03-21T22:32:47.132Z,14.39
2023-03-21T22:35:35.633Z,14.30
2023-03-21T22:38:24.153Z,14.30
2023-03-21T22:41:09.980Z,14.31
2023-03-21T22:43:55.869Z,14.20
2023-03-21T22:46:41.742Z,14.14
2023-03-21T22:49:27.572Z,14.25
2023-03-21T22:52:14.102Z,14.27
2023-03-21T22:55:00.277Z,14.17
2023-03-21T22:57:45.971Z,14.25
2023-03-21T23:00:31.806Z,14.26
2023-03-21T23:03:17.918Z,14.23
2023-03-21T23:06:04.064Z,14.15
2023-03-21T23:08:50.235Z,14.23
2023-03-21T23:11:37.270Z,14.24
2023-03-21T23:14:23.602Z,14.18
2023-03-21T23:17:10.250Z,14.08
2023-03-21T23:19:56.292Z,14.08
2023-03-21T23:22:42.356Z,14.13
2023-03-21T23:25:30.528Z,14.04
2023-03-21T23:28:16.990Z,14.06
2023-03-21T23:31:10.457Z,14.03
2023-03-21T23:33:58.756Z,14.03
2023-03-21T23:36:44.786Z,14.05
2023-03-21T23:39:33.633Z,13.94
2023-03-21T23:42:19.379Z,14.04
2023-03-21T23:45:05.766Z,13.90
2023-03-21T23:47:51.887Z,13.94
2023-03-21T23:50:38.047Z,13.92
2023-03-21T23:53:24.430Z,13.89
2023-03-21T23:56:21.703Z,13.81
2023-03-21T23:59:07.833Z,13.82
